Terminal Aerodrome Forecast
Issued by NWS

Home | Current Version | Previous Version | Text Only | Print | Product List | Glossary On
Versions: 1 2 3 4 5 6 7 8 9 10 11 12 13 14 15 16 17 18 19 20 21 22 23 24 25 26 27 28 29 30 31
000
FTUS45 KGJT 042324
TAFRIL
TAF
KRIL 042324Z 0500/0524 27008KT P6SM FEW110
     FM050200 17004KT P6SM FEW110
     FM050600 VRB03KT P6SM SKC
     FM051900 26012G25KT P6SM SCT250=

USA.gov is the U.S. government's official web portal to all federal, state and local government web resources and services.